Time;durP1;ratioP1;P1;durP2;ratioP2;P2;SDS_P1;SDS_P2;PMS_P1;PMS_P2;Temp;Humidity;BMP_temperature;BMP_pressure;BME280_temperature;BME280_humidity;BME280_pressure;Samples;Min_cycle;Max_cycle;Signal;HPM_P1;HPM_P2
2021/11/10 00:01:27;;;;;;;9.88;5.28;;;;;;;4.35;69.44;101278.78;5071819;28;20506;-58
2021/11/10 00:03:54;;;;;;;9.93;5.15;;;;;;;4.32;69.93;101275.69;5056228;28;20049;-58
2021/11/10 00:06:22;;;;;;;8.55;4.88;;;;;;;4.32;69.68;101276.53;5069441;28;20076;-59
2021/11/10 00:08:50;;;;;;;11.05;5.15;;;;;;;4.31;70.08;101265.75;5073085;28;20410;-58
2021/11/10 00:11:18;;;;;;;7.93;5.25;;;;;;;4.29;70.06;101259.66;5073994;28;20518;-59
2021/11/10 00:13:45;;;;;;;8.00;4.90;;;;;;;4.28;69.96;101253.28;5071859;28;20048;-58
2021/11/10 00:16:15;;;;;;;8.98;5.35;;;;;;;4.28;69.83;101245.03;5059160;28;20056;-58
2021/11/10 00:18:43;;;;;;;;;;;;;;;4.23;70.15;101244.97;5067737;28;20410;-58
2021/11/10 00:21:10;;;;;;;7.78;4.78;;;;;;;4.24;69.71;101243.84;5054105;28;19939;-58
2021/11/10 00:23:37;;;;;;;8.07;4.60;;;;;;;4.21;69.86;101253.47;5054124;28;20053;-58
2021/11/10 00:26:06;;;;;;;9.00;5.25;;;;;;;4.19;69.51;101247.38;5053614;28;20498;-58
2021/11/10 00:28:33;;;;;;;9.30;4.32;;;;;;;4.12;69.86;101234.88;5071440;28;20048;-59
2021/11/10 00:31:01;;;;;;;7.00;4.57;;;;;;;4.13;69.41;101234.59;5069688;28;20049;-59
2021/11/10 00:33:28;;;;;;;8.98;4.43;;;;;;;4.11;69.69;101241.47;5054323;28;20045;-58
2021/11/10 00:35:56;;;;;;;6.80;4.30;;;;;;;4.10;69.62;101242.56;5073125;28;20040;-58
2021/11/10 00:38:23;;;;;;;7.68;3.95;;;;;;;4.09;69.46;101240.88;5073783;28;20487;-59
2021/11/10 00:40:51;;;;;;;6.70;4.22;;;;;;;4.01;69.73;101245.75;5067438;28;20060;-58
2021/11/10 00:43:20;;;;;;;6.93;4.20;;;;;;;4.00;69.68;101244.06;5054093;28;20503;-58
2021/11/10 00:45:47;;;;;;;8.38;4.55;;;;;;;3.99;69.28;101238.78;5070011;28;20052;-58
2021/11/10 00:48:15;;;;;;;8.27;5.00;;;;;;;3.97;69.73;101239.06;5073697;28;20048;-58
2021/11/10 00:50:42;;;;;;;8.20;4.05;;;;;;;3.99;69.76;101245.16;5073707;28;20056;-58
2021/11/10 01:06:40;;;;;;;8.95;3.97;;;;;;;3.79;69.70;101228.28;5054711;28;20039;-58
2021/11/10 01:09:08;;;;;;;7.70;4.25;;;;;;;3.82;69.90;101227.75;5055204;28;20041;-58
2021/11/10 01:11:35;;;;;;;8.23;4.20;;;;;;;3.80;69.74;101222.53;5071371;28;20053;-58
2021/11/10 01:14:03;;;;;;;6.85;4.18;;;;;;;3.80;70.13;101219.78;5058357;28;20415;-58
2021/11/10 01:16:30;;;;;;;11.98;5.47;;;;;;;3.79;69.71;101220.84;5052987;28;20525;-58
2021/11/10 01:18:57;;;;;;;6.50;4.22;;;;;;;3.73;69.63;101223.78;5067856;28;20391;-59
2021/11/10 01:21:25;;;;;;;7.78;4.55;;;;;;;3.75;69.75;101216.09;5072839;28;20075;-59
2021/11/10 01:23:53;;;;;;;9.02;4.50;;;;;;;3.75;69.97;101216.09;5063473;28;20068;-58
2021/11/10 01:26:21;;;;;;;8.63;4.47;;;;;;;3.73;69.74;101215.50;5072559;28;20056;-58
2021/11/10 01:28:48;;;;;;;9.85;5.40;;;;;;;3.74;69.63;101219.91;5072645;28;20123;-58
2021/11/10 01:31:16;;;;;;;7.93;4.30;;;;;;;3.75;70.46;101199.56;5060937;28;20491;-58
2021/11/10 01:33:43;;;;;;;6.35;3.90;;;;;;;3.74;70.30;101200.63;5072336;28;20045;-58
2021/11/10 01:36:10;;;;;;;8.32;4.35;;;;;;;3.71;70.05;101209.41;5073005;28;20063;-58
2021/11/10 01:38:38;;;;;;;9.85;5.10;;;;;;;3.71;70.23;101203.91;5059586;28;20488;-58
2021/11/10 01:41:08;;;;;;;7.63;4.63;;;;;;;3.72;69.76;101200.06;5052867;28;20060;-58
2021/11/10 01:43:36;;;;;;;9.30;4.40;;;;;;;3.68;70.06;101201.66;5059686;28;20049;-58
2021/11/10 01:46:04;;;;;;;8.70;4.60;;;;;;;3.70;69.95;101196.72;5072746;28;20059;-58
2021/11/10 01:48:32;;;;;;;8.68;4.68;;;;;;;3.62;70.05;101206.25;5067558;28;20132;-58
2021/11/10 01:50:59;;;;;;;7.38;4.53;;;;;;;3.62;70.02;101207.06;5052298;28;20051;-59
2021/11/10 01:53:26;;;;;;;8.38;4.75;;;;;;;3.66;69.97;101197.22;5053280;28;20057;-59
2021/11/10 01:55:54;;;;;;;9.43;4.80;;;;;;;3.62;70.16;101196.06;5052961;28;20049;-58
2021/11/10 01:58:23;;;;;;;9.50;4.88;;;;;;;3.62;70.19;101201.56;5057171;28;20052;-58
2021/11/10 02:00:51;;;;;;;11.10;5.65;;;;;;;3.58;69.72;101197.63;5067549;28;20547;-58
2021/11/10 02:03:18;;;;;;;9.18;4.72;;;;;;;3.54;70.00;101190.94;5054352;28;20064;-58
2021/11/10 02:05:46;;;;;;;8.88;5.13;;;;;;;3.55;69.86;101186.28;5052993;28;20056;-60
2021/11/10 02:08:15;;;;;;;10.18;4.70;;;;;;;3.55;70.38;101189.03;5064379;28;20410;-59
2021/11/10 02:10:42;;;;;;;8.80;4.82;;;;;;;3.48;69.99;101191.13;5052391;28;20057;-59
2021/11/10 02:13:09;;;;;;;11.02;4.80;;;;;;;3.49;70.66;101181.78;5063794;28;20044;-59
2021/11/10 02:15:38;;;;;;;9.50;4.75;;;;;;;3.49;70.81;101179.03;5071498;28;20060;-60
2021/11/10 02:18:05;;;;;;;7.93;4.72;;;;;;;3.48;70.57;101178.19;5070405;28;20049;-59
2021/11/10 02:20:35;;;;;;;9.93;4.85;;;;;;;3.49;70.20;101165.25;5068550;28;20064;-58
2021/11/10 02:23:05;;;;;;;8.60;5.22;;;;;;;3.48;70.04;101164.41;5072229;28;20490;-58
2021/11/10 02:25:33;;;;;;;8.23;4.78;;;;;;;3.48;70.18;101161.66;5072480;28;20045;-59
2021/11/10 02:28:01;;;;;;;8.82;4.80;;;;;;;3.48;70.09;101164.41;5056738;28;20064;-57
2021/11/10 02:30:29;;;;;;;9.77;4.78;;;;;;;3.49;70.19;101173.53;5052565;28;20052;-58
2021/11/10 02:32:58;;;;;;;7.32;4.80;;;;;;;3.44;70.17;101182.50;5066952;28;20048;-58
2021/11/10 02:35:28;;;;;;;9.65;4.97;;;;;;;3.43;70.06;101180.84;5072186;28;20486;-58
2021/11/10 02:38:01;;;;;;;9.95;5.35;;;;;;;3.43;69.83;101178.09;5075797;28;20053;-59
2021/11/10 02:40:30;;;;;;;7.18;4.35;;;;;;;3.39;70.55;101175.00;5067529;28;20044;-58
2021/11/10 02:42:58;;;;;;;6.97;4.53;;;;;;;3.41;70.22;101161.81;5057219;28;20112;-58
2021/11/10 02:45:29;;;;;;;9.45;4.57;;;;;;;3.41;70.19;101166.50;5056074;28;20053;-58
2021/11/10 02:47:57;;;;;;;8.90;4.55;;;;;;;3.35;70.48;101167.50;5074446;28;20052;-58
2021/11/10 02:50:29;;;;;;;8.80;4.55;;;;;;;3.39;70.52;101168.66;5073159;28;20048;-58
2021/11/10 02:52:56;;;;;;;9.40;4.05;;;;;;;3.39;70.89;101168.66;5064741;28;20048;-58
2021/11/10 02:55:23;;;;;;;8.52;5.18;;;;;;;3.37;70.76;101166.16;5057016;28;20053;-58
2021/11/10 02:57:53;;;;;;;7.53;4.60;;;;;;;3.38;70.92;101175.25;5055998;28;20053;-58
2021/11/10 03:00:20;;;;;;;8.68;4.88;;;;;;;3.37;70.69;101171.66;5065937;28;20067;-58
2021/11/10 03:02:50;;;;;;;8.10;3.90;;;;;;;3.37;70.65;101171.66;5075446;28;20052;-59
2021/11/10 03:05:18;;;;;;;7.28;4.13;;;;;;;3.37;70.74;101170.84;5075781;28;20063;-59
2021/11/10 03:07:45;;;;;;;7.25;4.07;;;;;;;3.36;71.03;101164.50;5074739;28;20056;-58
2021/11/10 03:10:12;;;;;;;6.47;3.55;;;;;;;3.37;70.78;101165.34;5055915;28;20057;-58
2021/11/10 03:12:40;;;;;;;6.18;3.80;;;;;;;3.40;71.15;101170.31;5070707;28;20048;-58
2021/11/10 03:15:10;;;;;;;9.93;4.20;;;;;;;3.45;70.74;101176.75;5064313;28;20049;-59
2021/11/10 03:17:38;;;;;;;10.45;4.68;;;;;;;3.43;71.09;101169.84;5075647;28;20053;-58
2021/11/10 03:20:07;;;;;;;6.30;3.85;;;;;;;3.47;71.10;101168.25;5075335;28;20067;-58
2021/11/10 03:22:35;;;;;;;9.30;4.17;;;;;;;3.45;70.73;101164.91;5074471;28;20059;-58
2021/11/10 03:25:02;;;;;;;7.03;4.22;;;;;;;3.47;70.82;101164.69;5057219;28;20494;-58
2021/11/10 03:27:29;;;;;;;9.10;3.88;;;;;;;3.46;70.31;101161.06;5060307;28;20049;-58
2021/11/10 03:29:56;;;;;;;8.52;4.13;;;;;;;3.43;70.48;101169.84;5075100;28;20053;-58
2021/11/10 03:32:26;;;;;;;7.57;4.05;;;;;;;3.44;70.68;101171.50;5074044;28;20060;-58
2021/11/10 03:34:53;;;;;;;7.90;4.25;;;;;;;3.43;70.28;101170.66;5074944;28;20502;-58
2021/11/10 03:37:21;;;;;;;8.15;4.40;;;;;;;3.40;70.86;101170.31;5066870;28;20468;-58
2021/11/10 03:39:48;;;;;;;7.55;4.55;;;;;;;3.38;70.65;101176.09;5058085;28;20041;-58
2021/11/10 03:42:16;;;;;;;8.95;4.78;;;;;;;3.34;70.79;101171.31;5064534;28;20064;-58
2021/11/10 03:44:43;;;;;;;6.55;3.97;;;;;;;3.42;71.10;101162.66;5075067;28;20052;-58
2021/11/10 03:47:10;;;;;;;8.20;3.72;;;;;;;3.39;70.48;101168.66;5068213;28;20403;-58
2021/11/10 03:49:39;;;;;;;7.47;4.25;;;;;;;3.41;70.61;101172.84;5055112;28;20053;-58
2021/11/10 03:52:07;;;;;;;7.18;4.07;;;;;;;3.40;70.83;101175.84;5067693;28;20060;-58
2021/11/10 03:54:34;;;;;;;5.75;3.25;;;;;;;3.37;70.79;101163.41;5074848;28;20048;-58
2021/11/10 03:57:01;;;;;;;7.45;4.05;;;;;;;3.34;70.18;101163.06;5074283;28;20056;-57
2021/11/10 03:59:29;;;;;;;6.20;3.60;;;;;;;3.35;69.95;101153.72;5062188;28;20048;-57
2021/11/10 04:01:56;;;;;;;6.80;3.97;;;;;;;3.27;71.00;101151.38;5074234;28;20526;-59
2021/11/10 04:04:23;;;;;;;6.50;3.60;;;;;;;3.27;71.26;101154.97;5074669;28;20474;-59
2021/11/10 04:06:52;;;;;;;8.82;3.85;;;;;;;3.24;71.16;101164.56;5067639;28;20059;-60
2021/11/10 04:09:19;;;;;;;7.13;4.03;;;;;;;3.27;71.15;101160.47;5054847;28;20045;-60
2021/11/10 04:11:47;;;;;;;7.72;4.43;;;;;;;3.29;71.43;101151.97;5064854;28;20060;-60
2021/11/10 04:14:14;;;;;;;6.78;4.20;;;;;;;3.30;70.79;101148.13;5074391;28;20198;-60
2021/11/10 04:16:42;;;;;;;9.02;4.85;;;;;;;3.30;70.70;101148.13;5061404;28;20057;-59
2021/11/10 04:19:09;;;;;;;7.70;4.70;;;;;;;3.28;70.54;101148.41;5070137;28;20554;-59
2021/11/10 04:21:36;;;;;;;10.70;5.75;;;;;;;3.33;71.01;101158.66;5071776;28;20055;-59
2021/11/10 04:24:06;;;;;;;7.47;4.18;;;;;;;3.30;71.40;101148.97;5074527;28;20052;-59
2021/11/10 04:26:35;;;;;;;6.80;3.63;;;;;;;3.25;70.76;101162.63;5062192;28;20061;-59
2021/11/10 04:29:04;;;;;;;8.60;4.00;;;;;;;3.33;70.46;101153.16;5073719;28;20380;-60
2021/11/10 04:31:32;;;;;;;8.00;4.20;;;;;;;3.29;70.82;101140.97;5060938;28;20045;-59
2021/11/10 04:33:59;;;;;;;8.40;4.80;;;;;;;3.30;70.58;101148.13;5053796;28;20053;-59
2021/11/10 04:36:29;;;;;;;8.43;4.35;;;;;;;3.26;71.19;101147.81;5053931;28;20395;-59
2021/11/10 04:38:56;;;;;;;6.55;4.40;;;;;;;3.32;70.22;101145.97;5053857;28;20049;-59
2021/11/10 04:41:25;;;;;;;8.90;4.45;;;;;;;3.31;70.56;101155.31;5062066;28;20052;-60
2021/11/10 04:43:53;;;;;;;6.55;4.20;;;;;;;3.29;70.59;101158.31;5073769;28;20056;-59
2021/11/10 04:46:25;;;;;;;9.55;5.47;;;;;;;3.23;70.21;101149.16;5070849;28;20052;-59
2021/11/10 04:48:52;;;;;;;8.80;4.78;;;;;;;3.26;70.40;101153.31;5053779;28;20061;-59
2021/11/10 04:51:23;;;;;;;6.70;4.22;;;;;;;3.19;69.84;101150.72;5053804;28;20499;-60
2021/11/10 04:53:56;;;;;;;7.90;4.32;;;;;;;3.23;69.89;101149.16;5054261;28;20049;-60
2021/11/10 04:56:24;;;;;;;7.47;4.43;;;;;;;3.22;70.23;101144.72;5053828;28;20049;-59
2021/11/10 04:58:52;;;;;;;9.10;4.80;;;;;;;3.18;70.47;101148.22;5060299;28;20144;-59
2021/11/10 05:01:25;;;;;;;5.78;4.05;;;;;;;3.11;69.85;101148.38;5073192;28;20056;-59
2021/11/10 05:03:53;;;;;;;6.43;3.88;;;;;;;3.11;69.88;101134.63;5073402;28;20063;-60
2021/11/10 05:06:21;;;;;;;9.27;4.22;;;;;;;3.11;70.15;101139.25;5069813;28;20458;-60
2021/11/10 05:08:49;;;;;;;8.85;4.03;;;;;;;3.08;70.75;101139.78;5053500;28;20060;-60
2021/11/10 05:11:17;;;;;;;6.28;3.47;;;;;;;3.10;70.35;101132.94;5053678;28;20053;-60
2021/11/10 05:13:46;;;;;;;7.13;3.67;;;;;;;2.98;70.50;101134.91;5057585;28;20052;-60
2021/11/10 05:16:13;;;;;;;5.95;3.50;;;;;;;3.00;70.86;101141.84;5072121;28;20060;-60
2021/11/10 05:18:43;;;;;;;5.90;3.70;;;;;;;3.02;70.87;101139.69;5073424;28;20052;-60
2021/11/10 05:21:11;;;;;;;7.15;4.35;;;;;;;3.02;70.96;101133.34;5071753;28;20048;-60
2021/11/10 05:23:38;;;;;;;10.30;4.20;;;;;;;2.98;70.80;101118.41;5056660;28;20045;-59
2021/11/10 05:26:06;;;;;;;6.82;3.10;;;;;;;2.98;70.58;101118.41;5052996;28;20052;-60
2021/11/10 05:28:33;;;;;;;6.95;4.15;;;;;;;3.04;71.25;101112.75;5063590;28;20059;-58
2021/11/10 05:31:02;;;;;;;10.13;5.43;;;;;;;3.07;70.98;101108.66;5073282;28;20055;-59
2021/11/10 05:33:30;;;;;;;10.65;5.40;;;;;;;3.09;70.64;101113.91;5069192;28;20048;-60
2021/11/10 05:35:57;;;;;;;8.80;5.20;;;;;;;3.11;70.74;101115.34;5052663;28;20418;-60
2021/11/10 05:38:24;;;;;;;7.35;4.00;;;;;;;2.94;70.93;101122.72;5072490;28;20053;-60
2021/11/10 05:40:52;;;;;;;8.25;3.70;;;;;;;2.72;71.25;101136.38;5062082;28;20048;-60
2021/11/10 05:43:19;;;;;;;5.53;3.72;;;;;;;2.72;71.66;101147.38;5072775;28;20044;-60
2021/11/10 05:45:46;;;;;;;7.57;3.92;;;;;;;2.77;71.18;101139.19;5072776;28;20067;-60
2021/11/10 05:48:15;;;;;;;9.52;4.15;;;;;;;2.83;71.24;101151.97;5054159;28;20060;-59
2021/11/10 05:50:43;;;;;;;7.00;3.90;;;;;;;2.80;70.96;101160.72;5055667;28;20036;-60
2021/11/10 05:53:11;;;;;;;7.68;4.60;;;;;;;2.75;70.96;101153.22;5070885;28;20055;-60
2021/11/10 05:55:40;;;;;;;9.02;5.07;;;;;;;2.81;70.82;101140.38;5072465;28;20052;-60
2021/11/10 05:58:08;;;;;;;7.32;4.25;;;;;;;2.84;71.61;101146.22;5065405;28;20053;-60
2021/11/10 06:00:35;;;;;;;8.55;5.30;;;;;;;2.87;71.02;101152.31;5072178;28;20059;-60
2021/11/10 06:03:03;;;;;;;9.63;5.20;;;;;;;2.81;71.15;101135.72;5072904;28;20049;-60
2021/11/10 06:05:31;;;;;;;8.45;5.70;;;;;;;2.80;71.47;101142.28;5056900;28;20056;-60
2021/11/10 06:07:59;;;;;;;9.60;6.60;;;;;;;2.76;71.53;101143.88;5055030;28;20399;-59
2021/11/10 06:10:26;;;;;;;11.07;6.60;;;;;;;2.81;70.38;101156.88;5053626;28;20522;-59
2021/11/10 06:12:53;;;;;;;8.50;5.25;;;;;;;2.81;70.65;101156.88;5071894;28;20044;-60
2021/11/10 06:15:21;;;;;;;8.63;5.60;;;;;;;2.67;71.06;101159.09;5072333;28;20063;-59
2021/11/10 06:17:48;;;;;;;9.13;5.47;;;;;;;2.73;70.45;101149.03;5059430;28;20059;-59
2021/11/10 06:20:16;;;;;;;7.60;5.07;;;;;;;2.77;70.77;101140.06;5053545;28;20049;-59
2021/11/10 06:22:45;;;;;;;12.68;5.90;;;;;;;2.82;70.78;101131.88;5053798;28;20049;-60
2021/11/10 06:25:12;;;;;;;9.05;5.60;;;;;;;2.77;70.02;101141.94;5052279;28;20053;-59
2021/11/10 06:27:40;;;;;;;10.10;6.38;;;;;;;2.77;71.10;101145.56;5052572;28;20064;-59
2021/11/10 06:30:11;;;;;;;10.27;6.25;;;;;;;2.77;70.66;101147.44;5064151;28;20048;-60
2021/11/10 06:32:45;;;;;;;11.10;6.32;;;;;;;2.77;70.17;101148.31;5070580;28;20067;-59
2021/11/10 06:35:14;;;;;;;11.65;5.80;;;;;;;2.80;70.77;101147.81;5061438;28;20056;-59
2021/11/10 06:37:41;;;;;;;13.82;6.30;;;;;;;2.81;70.33;101148.63;5052124;28;20060;-59
2021/11/10 06:40:12;;;;;;;10.13;4.97;;;;;;;2.85;70.20;101150.63;5067821;28;20056;-59
2021/11/10 06:42:40;;;;;;;8.05;5.30;;;;;;;2.82;70.45;101144.81;5065787;28;20052;-59
2021/11/10 06:45:08;;;;;;;10.18;5.18;;;;;;;2.86;69.88;101143.25;5068734;28;20056;-59
2021/11/10 06:47:36;;;;;;;9.10;5.38;;;;;;;2.88;69.77;101152.09;5052385;28;20057;-60
2021/11/10 06:50:04;;;;;;;8.43;5.07;;;;;;;2.91;70.46;101156.25;5051692;28;20510;-59
2021/11/10 06:52:32;;;;;;;10.07;4.97;;;;;;;2.91;70.27;101161.75;5052118;28;20056;-60
2021/11/10 06:54:59;;;;;;;9.63;5.75;;;;;;;2.89;70.21;101163.91;5055268;28;20063;-59
2021/11/10 06:57:28;;;;;;;7.28;4.90;;;;;;;2.97;70.14;101171.78;5065126;28;20057;-60
2021/11/10 06:59:56;;;;;;;8.68;4.50;;;;;;;2.95;70.85;101171.19;5057288;28;20053;-59
2021/11/10 07:02:24;;;;;;;8.55;4.03;;;;;;;2.99;70.53;101169.63;5050484;28;20045;-59
2021/11/10 07:04:51;;;;;;;7.18;3.58;;;;;;;2.99;70.41;101162.19;5051722;28;20132;-59
2021/11/10 07:07:19;;;;;;;9.20;4.00;;;;;;;3.08;70.12;101168.13;5057040;28;20060;-59
2021/11/10 07:09:47;;;;;;;7.40;4.28;;;;;;;3.13;70.43;101167.38;5057870;28;20518;-59
2021/11/10 07:12:14;;;;;;;10.10;5.35;;;;;;;3.19;70.86;101164.50;5055463;28;20067;-59
2021/11/10 07:14:43;;;;;;;12.43;7.47;;;;;;;3.16;70.23;101175.97;5063062;28;20048;-59
2021/11/10 07:17:10;;;;;;;11.27;7.13;;;;;;;3.20;70.05;101168.91;5058129;28;20410;-60
2021/11/10 07:19:38;;;;;;;11.02;6.30;;;;;;;3.32;69.57;101179.84;5061693;28;20049;-59
2021/11/10 07:22:05;;;;;;;9.73;6.43;;;;;;;3.38;69.61;101184.38;5071434;28;20064;-59
2021/11/10 07:24:32;;;;;;;13.05;6.40;;;;;;;3.46;69.82;101188.59;5060075;28;20041;-59
2021/11/10 07:27:00;;;;;;;11.63;6.35;;;;;;;3.56;68.91;101190.72;5069446;28;20059;-60
2021/11/10 07:29:28;;;;;;;9.20;6.40;;;;;;;3.66;69.28;101194.47;5069988;28;20380;-59
2021/11/10 07:31:58;;;;;;;10.45;6.35;;;;;;;3.77;69.18;101200.16;5056291;28;20056;-59
2021/11/10 07:34:25;;;;;;;10.23;6.07;;;;;;;3.83;68.38;101197.22;5061654;28;20049;-59
2021/11/10 07:36:52;;;;;;;11.38;6.30;;;;;;;3.95;68.48;101204.53;5055321;28;20052;-58
2021/11/10 07:39:20;;;;;;;10.25;6.90;;;;;;;3.98;68.25;101210.41;5058297;28;20056;-60
2021/11/10 07:41:49;;;;;;;10.30;6.60;;;;;;;4.12;68.26;101213.66;5063722;28;20052;-59
2021/11/10 07:44:17;;;;;;;11.82;6.30;;;;;;;4.25;67.59;101205.00;5061507;28;20506;-60
2021/11/10 07:46:50;;;;;;;8.60;5.65;;;;;;;4.29;67.38;101202.59;5074549;28;20052;-59
2021/11/10 07:49:20;;;;;;;11.73;6.25;;;;;;;4.39;67.12;101201.88;5062299;28;20049;-59
2021/11/10 07:51:48;;;;;;;;;;;;;;;4.53;66.23;101202.34;5056758;28;20063;-60
2021/11/10 07:54:16;;;;;;;9.55;5.72;;;;;;;5.00;66.21;101201.81;5072871;28;19920;-60
2021/11/10 07:56:43;;;;;;;9.57;5.18;;;;;;;5.58;64.74;101205.69;5074773;28;20060;-60
2021/11/10 07:59:11;;;;;;;10.48;5.20;;;;;;;5.86;64.18;101212.84;5063377;28;20049;-59
2021/11/10 08:01:38;;;;;;;7.93;5.25;;;;;;;6.23;62.97;101200.09;5064584;28;20689;-60
2021/11/10 08:04:05;;;;;;;10.85;5.53;;;;;;;6.50;61.83;101200.81;5059489;28;20063;-60
2021/11/10 08:06:34;;;;;;;12.38;7.32;;;;;;;6.53;61.62;101213.31;5067294;28;20056;-60
2021/11/10 08:09:05;;;;;;;9.85;6.55;;;;;;;6.71;60.86;101201.72;5055161;28;20430;-60
2021/11/10 08:11:32;;;;;;;11.85;6.50;;;;;;;6.91;60.49;101197.41;5057428;28;20048;-60
2021/11/10 08:14:00;;;;;;;9.20;6.20;;;;;;;7.04;60.25;101193.28;5062359;28;20049;-60
2021/11/10 08:16:27;;;;;;;9.73;6.47;;;;;;;7.41;59.54;101193.06;5072559;28;20052;-60
2021/11/10 08:18:54;;;;;;;12.85;7.20;;;;;;;7.84;58.26;101201.13;5065890;28;20049;-61
2021/11/10 08:21:22;;;;;;;9.65;6.72;;;;;;;8.22;57.25;101212.72;5054828;28;20495;-60
2021/11/10 08:23:51;;;;;;;9.77;6.25;;;;;;;8.23;56.48;101211.59;5064313;28;20056;-60
2021/11/10 08:26:18;;;;;;;10.57;6.60;;;;;;;8.15;56.46;101201.91;5063984;28;20049;-60
2021/11/10 08:28:46;;;;;;;13.85;7.30;;;;;;;8.08;55.64;101209.69;5056453;28;20115;-60
2021/11/10 08:31:13;;;;;;;9.88;6.53;;;;;;;8.00;57.17;101210.25;5064383;28;20048;-61
2021/11/10 08:33:41;;;;;;;9.80;6.10;;;;;;;7.99;57.08;101219.69;5066970;28;20045;-60
2021/11/10 08:36:09;;;;;;;12.65;6.55;;;;;;;8.29;56.09;101232.69;5062194;28;20063;-60
2021/11/10 08:38:36;;;;;;;10.00;6.13;;;;;;;8.41;55.07;101224.91;5070008;28;20064;-60
2021/11/10 08:41:05;;;;;;;9.23;6.80;;;;;;;8.97;54.47;101223.06;5065717;28;20490;-61
2021/11/10 08:43:32;;;;;;;9.95;5.97;;;;;;;9.79;52.26;101217.81;5059521;28;20049;-61
2021/11/10 08:46:01;;;;;;;6.88;4.80;;;;;;;10.94;49.83;101215.22;5054823;28;20056;-61
2021/11/10 08:48:29;;;;;;;8.73;5.50;;;;;;;12.21;47.43;101212.72;5071938;28;20059;-61
2021/11/10 08:50:57;;;;;;;8.27;4.97;;;;;;;13.79;43.75;101200.94;5067224;28;20483;-61
2021/11/10 08:53:25;;;;;;;7.28;5.00;;;;;;;14.74;41.67;101201.78;5055281;28;20049;-60
2021/11/10 08:55:55;;;;;;;7.10;4.60;;;;;;;14.33;41.79;101197.31;5064754;28;20051;-60
2021/11/10 08:58:25;;;;;;;6.47;4.70;;;;;;;13.95;42.19;101190.16;5053410;28;20545;-61
2021/11/10 09:00:53;;;;;;;7.20;4.80;;;;;;;13.51;42.67;101193.81;5053998;28;20053;-61
2021/11/10 09:03:22;;;;;;;7.18;4.70;;;;;;;13.13;43.73;101188.50;5059209;28;20048;-60
2021/11/10 09:05:50;;;;;;;7.90;4.20;;;;;;;12.87;44.04;101175.09;5068938;28;20071;-60
2021/11/10 09:08:19;;;;;;;5.88;4.47;;;;;;;12.65;45.14;101184.19;5055917;28;20048;-60
2021/11/10 09:10:47;;;;;;;7.60;6.15;;;;;;;12.79;44.47;101175.81;5053871;28;20056;-60
2021/11/10 09:13:14;;;;;;;10.93;6.63;;;;;;;12.82;44.17;101183.56;5060131;28;20074;-60
2021/11/10 09:15:44;;;;;;;12.35;6.95;;;;;;;13.43;43.10;101186.16;5071079;28;20060;-60
2021/11/10 09:18:11;;;;;;;11.23;7.72;;;;;;;14.09;41.96;101186.44;5052899;28;20066;-60
2021/11/10 09:20:43;;;;;;;13.40;7.43;;;;;;;14.36;41.11;101182.63;5068855;28;20436;-60
2021/11/10 09:23:13;;;;;;;12.07;6.40;;;;;;;14.63;40.39;101194.81;5066946;28;20048;-60
2021/11/10 09:25:41;;;;;;;9.20;5.88;;;;;;;15.27;39.40;101175.50;5064384;28;20052;-60
2021/11/10 09:28:10;;;;;;;12.73;5.65;;;;;;;15.86;38.53;101174.19;5052938;28;20056;-61
2021/11/10 09:30:41;;;;;;;7.57;5.60;;;;;;;16.74;36.79;101176.34;5054563;28;20056;-60
2021/11/10 09:33:11;;;;;;;10.52;5.72;;;;;;;17.80;35.26;101163.97;5061645;28;20044;-60
2021/11/10 09:35:41;;;;;;;8.98;5.80;;;;;;;18.94;33.04;101179.56;5071608;28;20398;-60
2021/11/10 09:38:08;;;;;;;;;;;;;;;19.82;31.20;101177.84;5060762;28;20056;-60
2021/11/10 09:40:38;;;;;;;10.35;5.45;;;;;;;20.88;30.19;101169.72;5054730;28;19920;-60
2021/11/10 09:43:07;;;;;;;9.90;5.80;;;;;;;21.73;28.67;101165.53;5062155;28;20048;-61
2021/11/10 09:45:36;;;;;;;9.93;5.43;;;;;;;22.72;27.21;101162.09;5055228;28;20396;-60
2021/11/10 09:48:06;;;;;;;9.25;5.55;;;;;;;23.36;25.91;101168.75;5053775;28;20508;-60
2021/11/10 09:50:39;;;;;;;7.30;5.80;;;;;;;24.24;25.42;101156.00;5054903;28;20052;-60
2021/11/10 09:53:07;;;;;;;10.82;6.07;;;;;;;24.00;25.37;101162.25;5060792;28;20051;-54
2021/11/10 09:55:35;;;;;;;12.95;6.43;;;;;;;24.78;25.15;101141.41;5054462;28;20052;-60
2021/11/10 09:58:03;;;;;;;11.02;5.68;;;;;;;25.33;23.94;101157.69;5080666;28;20052;-60
2021/11/10 10:00:35;;;;;;;8.30;5.68;;;;;;;25.67;23.31;101152.53;5057576;28;20060;-62
2021/11/10 10:03:07;;;;;;;10.55;5.40;;;;;;;26.14;22.98;101156.34;5053498;28;20045;-60
2021/11/10 10:05:36;;;;;;;10.32;6.38;;;;;;;26.62;22.37;101147.44;5060589;28;20506;-60
2021/11/10 10:08:05;;;;;;;8.00;5.80;;;;;;;27.07;21.67;101144.94;5052129;28;20064;-60
2021/11/10 10:10:34;;;;;;;9.27;5.70;;;;;;;27.59;21.18;101135.78;5052340;28;20067;-59
2021/11/10 10:13:03;;;;;;;8.33;6.03;;;;;;;27.50;21.34;101141.94;5052440;28;20071;-59
2021/11/10 10:15:35;;;;;;;9.07;5.22;;;;;;;27.20;21.11;101135.91;5060636;28;20501;-59
2021/11/10 10:18:03;;;;;;;8.80;5.55;;;;;;;26.79;21.61;101122.13;5052939;28;20052;-58
2021/11/10 10:20:33;;;;;;;9.50;5.38;;;;;;;25.38;23.04;101123.06;5062922;28;20150;-59
2021/11/10 10:23:05;;;;;;;8.63;5.68;;;;;;;24.24;24.69;101115.31;5062847;28;20052;-59
2021/11/10 10:25:40;;;;;;;8.25;5.50;;;;;;;23.45;25.40;101123.78;5052293;28;20053;-59
2021/11/10 10:28:09;;;;;;;10.15;5.63;;;;;;;23.68;25.77;101125.69;5051968;28;20068;-59
2021/11/10 10:30:39;;;;;;;9.48;5.75;;;;;;;24.37;24.87;101121.53;5067295;28;20060;-58
2021/11/10 10:33:09;;;;;;;9.38;5.60;;;;;;;24.71;24.46;101123.06;5071035;28;20056;-59
2021/11/10 10:35:40;;;;;;;8.63;5.35;;;;;;;25.11;24.36;101124.16;5069740;28;20494;-59
2021/11/10 10:38:13;;;;;;;9.32;5.57;;;;;;;25.58;23.99;101127.22;5051627;28;20052;-58
2021/11/10 10:40:42;;;;;;;9.38;5.88;;;;;;;25.90;23.25;101127.34;5064769;28;20049;-58
2021/11/10 10:43:11;;;;;;;10.63;6.10;;;;;;;26.27;22.75;101125.34;5059667;28;20068;-58
2021/11/10 10:45:43;;;;;;;8.00;6.03;;;;;;;26.86;22.74;101111.50;5063670;28;20048;-60
2021/11/10 10:48:13;;;;;;;8.23;6.38;;;;;;;27.40;21.75;101117.06;5066919;28;20530;-60
2021/11/10 10:50:49;;;;;;;7.18;6.25;;;;;;;27.44;21.25;101126.44;5056079;28;20053;-58
2021/11/10 10:53:20;;;;;;;11.20;5.70;;;;;;;26.76;22.43;101122.94;5054102;28;20067;-59
2021/11/10 10:55:50;;;;;;;11.75;7.22;;;;;;;25.79;23.53;101122.81;5072070;28;20056;-59
2021/11/10 10:58:35;;;;;;;10.48;6.82;;;;;;;25.12;24.48;101131.47;5070942;28;20045;-58
2021/11/10 11:01:19;;;;;;;12.32;7.15;;;;;;;24.77;24.99;101131.25;5055336;28;20077;-59
2021/11/10 11:03:50;;;;;;;11.52;9.38;;;;;;;24.79;25.34;101137.34;5057641;28;20509;-58
2021/11/10 11:06:35;;;;;;;11.15;6.60;;;;;;;24.50;25.81;101129.41;5075330;28;20411;-59
2021/11/10 11:09:13;;;;;;;11.27;7.40;;;;;;;25.08;25.25;101135.53;5075185;28;20044;-59
2021/11/10 11:11:54;;;;;;;10.40;6.13;;;;;;;25.18;24.88;101131.06;5072436;28;20052;-59
2021/11/10 11:14:39;;;;;;;9.13;6.15;;;;;;;25.31;25.04;101132.41;5056888;28;20057;-58
2021/11/10 11:17:25;;;;;;;9.18;6.07;;;;;;;25.26;25.15;101127.91;5074841;28;20049;-59
2021/11/10 11:19:56;;;;;;;10.07;6.45;;;;;;;24.60;26.42;101122.16;5074677;28;20059;-58
2021/11/10 11:22:26;;;;;;;10.13;6.45;;;;;;;24.11;26.73;101131.88;5073224;28;20506;-58
2021/11/10 11:24:56;;;;;;;10.18;6.28;;;;;;;23.19;28.30;101129.53;5074535;28;20053;-58
2021/11/10 11:27:26;;;;;;;10.45;6.75;;;;;;;22.98;29.00;101144.25;5074807;28;20052;-58
2021/11/10 11:30:00;;;;;;;9.48;5.95;;;;;;;22.63;29.61;101136.78;5075123;28;20079;-59
2021/11/10 11:32:30;;;;;;;10.15;6.38;;;;;;;22.20;30.07;101136.03;5073607;28;20052;-59
2021/11/10 11:35:04;;;;;;;10.98;6.05;;;;;;;22.24;30.24;101129.25;5061865;28;20048;-58
2021/11/10 11:37:32;;;;;;;8.70;5.85;;;;;;;21.82;30.66;101141.41;5054764;28;20064;-59
2021/11/10 11:40:06;;;;;;;8.65;5.82;;;;;;;21.28;31.17;101128.94;5067834;28;20071;-59
2021/11/10 11:42:33;;;;;;;8.15;6.03;;;;;;;20.82;31.28;101130.72;5063212;28;20471;-58
2021/11/10 11:45:01;;;;;;;7.72;6.00;;;;;;;20.44;31.94;101126.56;5071629;28;20053;-59
2021/11/10 11:47:29;;;;;;;10.00;5.68;;;;;;;20.02;32.20;101116.59;5074659;28;20063;-58
2021/11/10 11:50:02;;;;;;;9.27;5.97;;;;;;;19.87;32.31;101120.22;5061695;28;20491;-58